sensor_id;sensor_type;location;lat;lon;timestamp;pressure;altitude;pressure_sealevel;temperature;humidity
85782;BME280;76219;50.128;8.728;2024-02-15T00:02:18;100960.72;;;9.92;88.13
85782;BME280;76219;50.128;8.728;2024-02-15T00:04:49;100943.09;;;9.91;87.96
85782;BME280;76219;50.128;8.728;2024-02-15T00:07:18;100960.38;;;9.82;88.01
85782;BME280;76219;50.128;8.728;2024-02-15T00:09:52;100956.97;;;9.80;88.84
85782;BME280;76219;50.128;8.728;2024-02-15T00:12:21;100955.06;;;9.82;88.01
85782;BME280;76219;50.128;8.728;2024-02-15T00:14:49;100949.75;;;9.82;88.51
85782;BME280;76219;50.128;8.728;2024-02-15T00:17:17;100959.72;;;9.79;88.87
85782;BME280;76219;50.128;8.728;2024-02-15T00:19:46;100951.47;;;9.83;88.03
85782;BME280;76219;50.128;8.728;2024-02-15T00:22:15;100959.44;;;9.83;88.39
85782;BME280;76219;50.128;8.728;2024-02-15T00:24:45;100958.25;;;9.89;88.08
85782;BME280;76219;50.128;8.728;2024-02-15T00:27:20;100959.19;;;9.88;88.36
85782;BME280;76219;50.128;8.728;2024-02-15T00:29:49;100959.19;;;9.88;88.52
85782;BME280;76219;50.128;8.728;2024-02-15T00:32:18;100963.38;;;9.92;88.50
85782;BME280;76219;50.128;8.728;2024-02-15T00:34:47;100960.38;;;9.82;88.20
85782;BME280;76219;50.128;8.728;2024-02-15T00:37:18;100959.84;;;9.91;88.34
85782;BME280;76219;50.128;8.728;2024-02-15T00:39:46;100958.16;;;9.90;88.39
85782;BME280;76219;50.128;8.728;2024-02-15T00:42:15;100953.50;;;9.94;88.69
85782;BME280;76219;50.128;8.728;2024-02-15T00:44:45;100950.88;;;9.94;87.97
85782;BME280;76219;50.128;8.728;2024-02-15T00:47:13;100948.28;;;9.92;88.30
85782;BME280;76219;50.128;8.728;2024-02-15T00:49:42;100959.69;;;9.94;88.05
85782;BME280;76219;50.128;8.728;2024-02-15T00:52:11;100960.72;;;9.92;87.73
85782;BME280;76219;50.128;8.728;2024-02-15T00:54:40;100956.34;;;9.91;88.67
85782;BME280;76219;50.128;8.728;2024-02-15T00:57:09;100956.34;;;9.91;88.42
85782;BME280;76219;50.128;8.728;2024-02-15T00:59:39;100959.44;;;9.83;88.20
85782;BME280;76219;50.128;8.728;2024-02-15T01:02:09;100952.09;;;9.88;88.14
85782;BME280;76219;50.128;8.728;2024-02-15T01:04:37;100963.13;;;9.97;87.82
85782;BME280;76219;50.128;8.728;2024-02-15T01:07:06;100958.06;;;9.92;87.47
85782;BME280;76219;50.128;8.728;2024-02-15T01:09:35;100953.19;;;10.00;87.89
85782;BME280;76219;50.128;8.728;2024-02-15T01:12:05;100953.69;;;9.91;87.94
85782;BME280;76219;50.128;8.728;2024-02-15T01:14:34;100960.81;;;9.90;87.80
85782;BME280;76219;50.128;8.728;2024-02-15T01:17:03;100960.00;;;10.04;87.54
85782;BME280;76219;50.128;8.728;2024-02-15T01:19:33;100947.97;;;9.99;87.74
85782;BME280;76219;50.128;8.728;2024-02-15T01:22:02;100954.53;;;10.07;87.11
85782;BME280;76219;50.128;8.728;2024-02-15T01:24:32;100954.88;;;10.01;87.46
85782;BME280;76219;50.128;8.728;2024-02-15T01:27:04;100957.25;;;10.06;87.64
85782;BME280;76219;50.128;8.728;2024-02-15T01:29:35;100958.97;;;10.07;87.49
85782;BME280;76219;50.128;8.728;2024-02-15T01:32:04;100960.00;;;10.04;87.07
85782;BME280;76219;50.128;8.728;2024-02-15T01:34:38;100954.03;;;10.01;87.33
85782;BME280;76219;50.128;8.728;2024-02-15T01:37:06;100961.72;;;10.05;87.28
85782;BME280;76219;50.128;8.728;2024-02-15T01:39:39;100956.25;;;10.08;86.66
85782;BME280;76219;50.128;8.728;2024-02-15T01:42:07;100960.00;;;10.04;86.71
85782;BME280;76219;50.128;8.728;2024-02-15T01:44:35;100945.41;;;9.97;87.36
85782;BME280;76219;50.128;8.728;2024-02-15T01:47:06;100949.75;;;9.98;87.26
85782;BME280;76219;50.128;8.728;2024-02-15T01:49:38;100935.53;;;9.99;86.88
85782;BME280;76219;50.128;8.728;2024-02-15T01:52:09;100940.75;;;10.01;86.89
85782;BME280;76219;50.128;8.728;2024-02-15T01:54:37;100942.28;;;10.05;86.86
85782;BME280;76219;50.128;8.728;2024-02-15T01:57:07;100937.16;;;10.02;86.51
85782;BME280;76219;50.128;8.728;2024-02-15T01:59:38;100936.22;;;10.03;86.76
85782;BME280;76219;50.128;8.728;2024-02-15T02:02:08;100939.53;;;10.06;86.04
85782;BME280;76219;50.128;8.728;2024-02-15T02:04:42;100939.81;;;10.02;87.22
85782;BME280;76219;50.128;8.728;2024-02-15T02:07:12;100940.00;;;9.99;86.56
85782;BME280;76219;50.128;8.728;2024-02-15T02:09:41;100936.59;;;9.97;86.99
85782;BME280;76219;50.128;8.728;2024-02-15T02:12:12;100936.41;;;10.00;86.58
85782;BME280;76219;50.128;8.728;2024-02-15T02:14:41;100934.69;;;9.99;86.65
85782;BME280;76219;50.128;8.728;2024-02-15T02:17:13;100936.59;;;9.97;86.43
85782;BME280;76219;50.128;8.728;2024-02-15T02:19:43;100940.19;;;9.96;86.87
85782;BME280;76219;50.128;8.728;2024-02-15T02:22:11;100934.88;;;9.96;86.37
85782;BME280;76219;50.128;8.728;2024-02-15T02:25:03;100935.53;;;9.99;86.18
85782;BME280;76219;50.128;8.728;2024-02-15T02:27:34;100933.94;;;9.97;86.48
85782;BME280;76219;50.128;8.728;2024-02-15T02:30:04;100929.81;;;9.91;86.78
85782;BME280;76219;50.128;8.728;2024-02-15T02:32:37;100929.72;;;9.92;86.49
85782;BME280;76219;50.128;8.728;2024-02-15T02:35:07;100938.44;;;9.94;86.55
85782;BME280;76219;50.128;8.728;2024-02-15T02:37:38;100931.28;;;9.97;86.12
85782;BME280;76219;50.128;8.728;2024-02-15T02:40:09;100936.59;;;9.97;86.69
85782;BME280;76219;50.128;8.728;2024-02-15T02:42:48;100924.06;;;9.99;86.61
85782;BME280;76219;50.128;8.728;2024-02-15T02:45:17;100927.50;;;10.01;86.49
85782;BME280;76219;50.128;8.728;2024-02-15T02:47:51;100927.31;;;10.04;86.42
85782;BME280;76219;50.128;8.728;2024-02-15T02:50:21;100926.53;;;10.02;85.74
85782;BME280;76219;50.128;8.728;2024-02-15T02:52:50;100927.59;;;9.99;86.09
85782;BME280;76219;50.128;8.728;2024-02-15T02:55:20;100930.41;;;9.96;86.32
85782;BME280;76219;50.128;8.728;2024-02-15T02:57:55;100928.44;;;10.00;86.20
85782;BME280;76219;50.128;8.728;2024-02-15T03:00:24;100932.97;;;9.98;86.25
85782;BME280;76219;50.128;8.728;2024-02-15T03:02:55;100925.13;;;9.96;86.33
85782;BME280;76219;50.128;8.728;2024-02-15T03:05:24;100932.03;;;9.99;86.04
85782;BME280;76219;50.128;8.728;2024-02-15T03:07:53;100927.59;;;9.99;85.76
85782;BME280;76219;50.128;8.728;2024-02-15T03:10:29;100929.63;;;9.94;85.52
85782;BME280;76219;50.128;8.728;2024-02-15T03:12:57;100928.63;;;9.97;86.32
85782;BME280;76219;50.128;8.728;2024-02-15T03:15:25;100927.50;;;10.01;85.99
85782;BME280;76219;50.128;8.728;2024-02-15T03:17:54;100926.34;;;10.05;85.32
85782;BME280;76219;50.128;8.728;2024-02-15T03:20:23;100929.09;;;10.03;85.24
85782;BME280;76219;50.128;8.728;2024-02-15T03:22:53;100927.31;;;10.04;85.69
85782;BME280;76219;50.128;8.728;2024-02-15T03:25:27;100914.31;;;9.99;85.86
85782;BME280;76219;50.128;8.728;2024-02-15T03:27:58;100919.34;;;10.04;85.21
85782;BME280;76219;50.128;8.728;2024-02-15T03:30:31;100915.06;;;10.01;85.24
85782;BME280;76219;50.128;8.728;2024-02-15T03:33:01;100909.66;;;10.03;85.56
85782;BME280;76219;50.128;8.728;2024-02-15T03:35:30;100914.22;;;10.01;85.46
85782;BME280;76219;50.128;8.728;2024-02-15T03:38:00;100909.66;;;10.03;85.18
85782;BME280;76219;50.128;8.728;2024-02-15T03:40:29;100911.38;;;10.04;85.29
85782;BME280;76219;50.128;8.728;2024-02-15T03:43:01;100913.38;;;10.00;85.26
85782;BME280;76219;50.128;8.728;2024-02-15T03:45:34;100908.81;;;10.02;85.10
85782;BME280;76219;50.128;8.728;2024-02-15T03:48:05;100911.28;;;10.05;84.33
85782;BME280;76219;50.128;8.728;2024-02-15T03:50:35;100910.44;;;10.05;85.29
85782;BME280;76219;50.128;8.728;2024-02-15T03:53:06;100913.19;;;10.03;84.83
85782;BME280;76219;50.128;8.728;2024-02-15T03:55:35;100912.59;;;9.98;85.64
85782;BME280;76219;50.128;8.728;2024-02-15T03:58:07;100917.91;;;9.98;85.73
85782;BME280;76219;50.128;8.728;2024-02-15T04:00:43;100921.50;;;9.97;85.56
85782;BME280;76219;50.128;8.728;2024-02-15T04:03:12;100915.41;;;9.95;85.64
85782;BME280;76219;50.128;8.728;2024-02-15T04:05:44;100917.53;;;10.04;85.10
85782;BME280;76219;50.128;8.728;2024-02-15T04:08:16;100909.94;;;9.98;85.48
85782;BME280;76219;50.128;8.728;2024-02-15T04:10:46;100916.13;;;9.99;85.27
85782;BME280;76219;50.128;8.728;2024-02-15T04:13:21;100920.66;;;9.97;85.00
85782;BME280;76219;50.128;8.728;2024-02-15T04:15:50;100921.31;;;10.00;85.03
85782;BME280;76219;50.128;8.728;2024-02-15T04:18:20;100919.72;;;9.98;84.89
85782;BME280;76219;50.128;8.728;2024-02-15T04:20:51;100922.00;;;10.04;85.28
85782;BME280;76219;50.128;8.728;2024-02-15T04:23:19;100924.06;;;9.99;85.23
85782;BME280;76219;50.128;8.728;2024-02-15T04:25:51;100920.56;;;9.98;85.33
85782;BME280;76219;50.128;8.728;2024-02-15T04:28:20;100926.13;;;9.93;85.07
85782;BME280;76219;50.128;8.728;2024-02-15T04:30:48;100918.06;;;9.95;85.31
85782;BME280;76219;50.128;8.728;2024-02-15T04:33:17;100924.31;;;9.94;85.31
85782;BME280;76219;50.128;8.728;2024-02-15T04:35:48;100915.41;;;9.95;85.38
85782;BME280;76219;50.128;8.728;2024-02-15T04:38:18;100921.09;;;9.89;86.08
85782;BME280;76219;50.128;8.728;2024-02-15T04:40:47;100916.44;;;9.92;85.18
85782;BME280;76219;50.128;8.728;2024-02-15T04:43:16;100921.84;;;9.91;84.92
85782;BME280;76219;50.128;8.728;2024-02-15T04:45:47;100918.44;;;9.89;85.35
85782;BME280;76219;50.128;8.728;2024-02-15T04:48:17;100924.59;;;9.89;85.61
85782;BME280;76219;50.128;8.728;2024-02-15T04:50:46;100916.13;;;9.83;85.76
85782;BME280;76219;50.128;8.728;2024-02-15T04:53:17;100919.91;;;9.79;86.16
85782;BME280;76219;50.128;8.728;2024-02-15T04:55:49;100912.81;;;9.79;86.29
85782;BME280;76219;50.128;8.728;2024-02-15T04:58:17;100917.91;;;9.82;86.36
85782;BME280;76219;50.128;8.728;2024-02-15T05:00:47;100911.09;;;9.78;86.58
85782;BME280;76219;50.128;8.728;2024-02-15T05:03:20;100909.38;;;9.77;86.42
85782;BME280;76219;50.128;8.728;2024-02-15T05:05:49;100907.50;;;9.79;86.35
85782;BME280;76219;50.128;8.728;2024-02-15T05:08:17;100914.78;;;9.76;86.53
85782;BME280;76219;50.128;8.728;2024-02-15T05:10:46;100908.78;;;9.72;86.59
85782;BME280;76219;50.128;8.728;2024-02-15T05:13:15;100903.56;;;9.71;87.12
85782;BME280;76219;50.128;8.728;2024-02-15T05:15:43;100905.13;;;9.75;86.78
85782;BME280;76219;50.128;8.728;2024-02-15T05:18:15;100900.66;;;9.75;87.08
85782;BME280;76219;50.128;8.728;2024-02-15T05:20:46;100898.69;;;9.79;86.10
85782;BME280;76219;50.128;8.728;2024-02-15T05:23:15;100898.09;;;9.74;87.10
85782;BME280;76219;50.128;8.728;2024-02-15T05:25:45;100897.25;;;9.73;86.86
85782;BME280;76219;50.128;8.728;2024-02-15T05:28:14;100896.22;;;9.76;86.68
85782;BME280;76219;50.128;8.728;2024-02-15T05:30:47;100890.91;;;9.76;86.85
85782;BME280;76219;50.128;8.728;2024-02-15T05:33:16;100899.72;;;9.76;87.01
85782;BME280;76219;50.128;8.728;2024-02-15T05:35:48;100893.66;;;9.74;86.64
85782;BME280;76219;50.128;8.728;2024-02-15T05:38:20;100898.16;;;9.72;86.92
85782;BME280;76219;50.128;8.728;2024-02-15T05:40:51;100890.91;;;9.76;86.67
85782;BME280;76219;50.128;8.728;2024-02-15T05:43:21;100899.53;;;9.79;86.59
85782;BME280;76219;50.128;8.728;2024-02-15T05:45:51;100898.00;;;9.75;86.65
85782;BME280;76219;50.128;8.728;2024-02-15T05:48:27;100890.91;;;9.76;86.43
85782;BME280;76219;50.128;8.728;2024-02-15T05:50:58;100896.13;;;9.77;86.65
85782;BME280;76219;50.128;8.728;2024-02-15T05:53:29;100890.81;;;9.77;86.19
85782;BME280;76219;50.128;8.728;2024-02-15T05:56:02;100890.72;;;9.79;86.17
85782;BME280;76219;50.128;8.728;2024-02-15T05:58:31;100898.69;;;9.79;86.05
85782;BME280;76219;50.128;8.728;2024-02-15T06:01:01;100891.47;;;9.81;86.13
85782;BME280;76219;50.128;8.728;2024-02-15T06:03:34;100906.03;;;9.89;85.13
85782;BME280;76219;50.128;8.728;2024-02-15T06:06:08;100904.78;;;9.95;85.06
85782;BME280;76219;50.128;8.728;2024-02-15T06:08:40;100900.28;;;9.97;84.58
85782;BME280;76219;50.128;8.728;2024-02-15T06:11:11;100906.25;;;10.01;84.47
85782;BME280;76219;50.128;8.728;2024-02-15T06:13:42;100901.13;;;9.98;84.61
85782;BME280;76219;50.128;8.728;2024-02-15T06:16:13;100907.38;;;9.97;84.36
85782;BME280;76219;50.128;8.728;2024-02-15T06:18:43;100909.25;;;9.94;85.05
85782;BME280;76219;50.128;8.728;2024-02-15T06:21:12;100913.81;;;9.92;84.93
85782;BME280;76219;50.128;8.728;2024-02-15T06:23:41;100911.16;;;9.92;84.91
85782;BME280;76219;50.128;8.728;2024-02-15T06:26:10;100919.19;;;9.91;84.14
85782;BME280;76219;50.128;8.728;2024-02-15T06:28:38;100906.44;;;9.82;85.25
85782;BME280;76219;50.128;8.728;2024-02-15T06:31:23;100913.13;;;9.89;85.14
85782;BME280;76219;50.128;8.728;2024-02-15T06:34:13;100911.66;;;9.83;85.69
85782;BME280;76219;50.128;8.728;2024-02-15T06:36:59;100918.09;;;9.79;85.73
85782;BME280;76219;50.128;8.728;2024-02-15T06:39:45;100923.31;;;9.81;85.49
85782;BME280;76219;50.128;8.728;2024-02-15T06:42:14;100914.78;;;9.76;85.82
85782;BME280;76219;50.128;8.728;2024-02-15T06:44:48;100916.22;;;9.81;85.86
85782;BME280;76219;50.128;8.728;2024-02-15T06:47:17;100914.75;;;9.91;84.80
85782;BME280;76219;50.128;8.728;2024-02-15T06:49:48;100915.50;;;9.93;85.04
85782;BME280;76219;50.128;8.728;2024-02-15T06:52:19;100909.25;;;9.94;84.37
85782;BME280;76219;50.128;8.728;2024-02-15T06:54:49;100902.16;;;9.95;84.61
85782;BME280;76219;50.128;8.728;2024-02-15T06:57:18;100898.38;;;9.99;84.22
85782;BME280;76219;50.128;8.728;2024-02-15T06:59:47;100899.72;;;10.06;84.41
85782;BME280;76219;50.128;8.728;2024-02-15T07:02:18;100901.16;;;10.12;83.87
85782;BME280;76219;50.128;8.728;2024-02-15T07:04:46;100897.56;;;10.13;83.51
85782;BME280;76219;50.128;8.728;2024-02-15T07:07:21;100892.97;;;10.01;84.46
85782;BME280;76219;50.128;8.728;2024-02-15T07:09:50;100897.03;;;9.92;84.92
85782;BME280;76219;50.128;8.728;2024-02-15T07:12:19;100894.28;;;9.93;85.40
85782;BME280;76219;50.128;8.728;2024-02-15T07:14:48;100887.16;;;10.10;83.91
85782;BME280;76219;50.128;8.728;2024-02-15T07:17:18;100895.63;;;10.01;83.96
85782;BME280;76219;50.128;8.728;2024-02-15T07:19:46;100892.25;;;9.83;85.34
85782;BME280;76219;50.128;8.728;2024-02-15T07:22:16;100881.47;;;9.86;85.32
85782;BME280;76219;50.128;8.728;2024-02-15T07:24:47;100880.66;;;10.00;84.58
85782;BME280;76219;50.128;8.728;2024-02-15T07:27:15;100885.72;;;10.18;83.25
85782;BME280;76219;50.128;8.728;2024-02-15T07:29:43;100883.59;;;10.25;83.20
85782;BME280;76219;50.128;8.728;2024-02-15T07:32:12;100889.03;;;10.38;82.14
85782;BME280;76219;50.128;8.728;2024-02-15T07:34:41;100894.13;;;10.41;82.10
85782;BME280;76219;50.128;8.728;2024-02-15T07:37:11;100891.78;;;10.36;82.18
85782;BME280;76219;50.128;8.728;2024-02-15T07:39:42;100889.22;;;10.49;81.53
85782;BME280;76219;50.128;8.728;2024-02-15T07:42:11;100893.78;;;10.75;80.44
85782;BME280;76219;50.128;8.728;2024-02-15T07:44:41;100898.34;;;10.88;80.04
85782;BME280;76219;50.128;8.728;2024-02-15T07:47:10;100900.34;;;11.13;80.07
85782;BME280;76219;50.128;8.728;2024-02-15T07:49:39;100899.91;;;11.33;77.99
85782;BME280;76219;50.128;8.728;2024-02-15T07:52:07;100894.88;;;11.43;78.76
85782;BME280;76219;50.128;8.728;2024-02-15T07:54:37;100900.09;;;11.44;77.48
85782;BME280;76219;50.128;8.728;2024-02-15T07:57:08;100907.69;;;11.50;78.15
85782;BME280;76219;50.128;8.728;2024-02-15T07:59:39;100906.81;;;12.94;71.64
85782;BME280;76219;50.128;8.728;2024-02-15T08:02:08;100908.63;;;12.30;74.00
85782;BME280;76219;50.128;8.728;2024-02-15T08:04:36;100904.84;;;12.07;74.69
85782;BME280;76219;50.128;8.728;2024-02-15T08:07:09;100896.88;;;12.33;74.11
85782;BME280;76219;50.128;8.728;2024-02-15T08:09:41;100905.75;;;12.97;71.34
85782;BME280;76219;50.128;8.728;2024-02-15T08:12:14;100900.13;;;12.63;71.88
85782;BME280;76219;50.128;8.728;2024-02-15T08:14:43;100903.41;;;12.41;73.13
85782;BME280;76219;50.128;8.728;2024-02-15T08:17:12;100911.72;;;11.97;74.77
85782;BME280;76219;50.128;8.728;2024-02-15T08:19:41;100904.78;;;12.47;73.43
85782;BME280;76219;50.128;8.728;2024-02-15T08:22:13;100911.09;;;12.59;72.42
85782;BME280;76219;50.128;8.728;2024-02-15T08:24:43;100910.97;;;12.73;72.39
85782;BME280;76219;50.128;8.728;2024-02-15T08:27:11;100914.06;;;12.29;74.57
85782;BME280;76219;50.128;8.728;2024-02-15T08:29:40;100909.09;;;12.62;72.37
85782;BME280;76219;50.128;8.728;2024-02-15T08:32:10;100912.91;;;12.71;71.32
85782;BME280;76219;50.128;8.728;2024-02-15T08:34:38;100908.13;;;12.76;71.75
85782;BME280;76219;50.128;8.728;2024-02-15T08:37:37;100908.00;;;12.39;72.75
85782;BME280;76219;50.128;8.728;2024-02-15T08:40:29;100907.53;;;12.33;74.71
85782;BME280;76219;50.128;8.728;2024-02-15T08:43:25;100913.13;;;12.55;72.81
85782;BME280;76219;50.128;8.728;2024-02-15T08:46:13;100916.19;;;13.00;70.72
85782;BME280;76219;50.128;8.728;2024-02-15T08:49:09;100906.94;;;13.42;69.96
85782;BME280;76219;50.128;8.728;2024-02-15T08:51:58;100902.22;;;12.96;70.59
85782;BME280;76219;50.128;8.728;2024-02-15T08:54:38;100894.13;;;13.95;67.55
85782;BME280;76219;50.128;8.728;2024-02-15T08:57:24;100898.09;;;14.13;66.54
85782;BME280;76219;50.128;8.728;2024-02-15T09:00:43;100895.91;;;13.59;68.03
85782;BME280;76219;50.128;8.728;2024-02-15T09:03:37;100900.94;;;15.03;63.56
85782;BME280;76219;50.128;8.728;2024-02-15T09:06:25;100902.63;;;15.37;62.17
85782;BME280;76219;50.128;8.728;2024-02-15T09:09:11;100902.84;;;15.68;61.35
85782;BME280;76219;50.128;8.728;2024-02-15T09:12:13;100895.06;;;15.54;61.05
85782;BME280;76219;50.128;8.728;2024-02-15T09:14:53;100900.72;;;15.28;62.08
85782;BME280;76219;50.128;8.728;2024-02-15T09:17:33;100900.16;;;14.45;65.22
85782;BME280;76219;50.128;8.728;2024-02-15T09:20:17;100901.50;;;14.50;63.78
85782;BME280;76219;50.128;8.728;2024-02-15T09:23:04;100896.16;;;14.50;64.10
85782;BME280;76219;50.128;8.728;2024-02-15T09:25:40;100897.06;;;13.92;65.78
85782;BME280;76219;50.128;8.728;2024-02-15T09:28:18;100893.44;;;13.20;68.53
85782;BME280;76219;50.128;8.728;2024-02-15T09:30:57;100899.66;;;13.20;68.67
85782;BME280;76219;50.128;8.728;2024-02-15T09:33:34;100898.28;;;14.34;64.27
85782;BME280;76219;50.128;8.728;2024-02-15T09:36:51;100893.63;;;15.05;62.95
85782;BME280;76219;50.128;8.728;2024-02-15T09:39:45;100890.13;;;14.82;62.87
85782;BME280;76219;50.128;8.728;2024-02-15T09:42:34;100886.94;;;15.87;59.72
85782;BME280;76219;50.128;8.728;2024-02-15T09:45:32;100877.13;;;15.97;59.14
85782;BME280;76219;50.128;8.728;2024-02-15T09:49:53;100872.28;;;13.90;64.65
85782;BME280;76219;50.128;8.728;2024-02-15T09:52:58;100876.50;;;14.85;62.51
85782;BME280;76219;50.128;8.728;2024-02-15T09:55:47;100869.59;;;15.59;59.83
85782;BME280;76219;50.128;8.728;2024-02-15T09:58:38;100874.81;;;14.62;62.20
85782;BME280;76219;50.128;8.728;2024-02-15T10:01:41;100876.84;;;14.69;62.04
85782;BME280;76219;50.128;8.728;2024-02-15T10:04:34;100872.59;;;15.11;60.91
85782;BME280;76219;50.128;8.728;2024-02-15T10:07:35;100877.59;;;14.60;61.78
85782;BME280;76219;50.128;8.728;2024-02-15T10:10:47;100865.34;;;16.93;56.24
85782;BME280;76219;50.128;8.728;2024-02-15T10:13:32;100872.16;;;15.61;60.12
85782;BME280;76219;50.128;8.728;2024-02-15T10:16:40;100880.28;;;14.82;60.91
85782;BME280;76219;50.128;8.728;2024-02-15T10:19:24;100859.97;;;16.00;58.32
85782;BME280;76219;50.128;8.728;2024-02-15T10:26:51;100861.22;;;16.79;55.93
85782;BME280;76219;50.128;8.728;2024-02-15T10:30:15;100854.44;;;15.37;59.04
85782;BME280;76219;50.128;8.728;2024-02-15T10:33:02;100849.41;;;16.91;54.48
85782;BME280;76219;50.128;8.728;2024-02-15T10:36:13;100844.22;;;16.48;55.91
85782;BME280;76219;50.128;8.728;2024-02-15T10:39:10;100846.63;;;15.89;57.49
85782;BME280;76219;50.128;8.728;2024-02-15T10:41:46;100840.19;;;16.84;54.73
85782;BME280;76219;50.128;8.728;2024-02-15T10:44:18;100835.16;;;15.66;57.98
85782;BME280;76219;50.128;8.728;2024-02-15T10:46:47;100833.06;;;15.69;56.85
85782;BME280;76219;50.128;8.728;2024-02-15T10:49:19;100830.34;;;15.37;59.03
85782;BME280;76219;50.128;8.728;2024-02-15T10:51:51;100833.38;;;14.21;62.75
85782;BME280;76219;50.128;8.728;2024-02-15T10:54:36;100831.53;;;15.44;58.63
85782;BME280;76219;50.128;8.728;2024-02-15T10:57:10;100825.56;;;14.64;60.51
85782;BME280;76219;50.128;8.728;2024-02-15T10:59:51;100823.81;;;15.30;58.88
85782;BME280;76219;50.128;8.728;2024-02-15T11:02:30;100823.84;;;15.51;58.02
85782;BME280;76219;50.128;8.728;2024-02-15T11:05:02;100823.47;;;15.56;58.46
85782;BME280;76219;50.128;8.728;2024-02-15T11:07:38;100815.38;;;16.20;56.43
85782;BME280;76219;50.128;8.728;2024-02-15T11:10:08;100818.50;;;16.46;56.19
85782;BME280;76219;50.128;8.728;2024-02-15T11:12:40;100809.84;;;16.12;56.97
85782;BME280;76219;50.128;8.728;2024-02-15T11:15:43;100804.84;;;16.28;56.26
85782;BME280;76219;50.128;8.728;2024-02-15T11:18:43;100796.22;;;15.51;58.62
85782;BME280;76219;50.128;8.728;2024-02-15T11:21:15;100802.63;;;16.63;55.22
85782;BME280;76219;50.128;8.728;2024-02-15T11:23:44;100790.94;;;16.13;56.47
85782;BME280;76219;50.128;8.728;2024-02-15T11:26:44;100793.16;;;15.66;59.19
85782;BME280;76219;50.128;8.728;2024-02-15T11:29:49;100789.06;;;16.86;54.71
85782;BME280;76219;50.128;8.728;2024-02-15T11:32:36;100778.44;;;16.54;55.56
85782;BME280;76219;50.128;8.728;2024-02-15T11:35:09;100773.34;;;17.89;52.29
85782;BME280;76219;50.128;8.728;2024-02-15T11:37:54;100774.31;;;16.19;56.27
85782;BME280;76219;50.128;8.728;2024-02-15T11:40:28;100767.66;;;15.72;57.86
85782;BME280;76219;50.128;8.728;2024-02-15T11:42:57;100765.69;;;15.10;59.92
85782;BME280;76219;50.128;8.728;2024-02-15T11:45:29;100757.81;;;16.14;56.17
85782;BME280;76219;50.128;8.728;2024-02-15T11:48:01;100759.06;;;17.31;53.42
85782;BME280;76219;50.128;8.728;2024-02-15T11:50:34;100749.38;;;16.89;54.40
85782;BME280;76219;50.128;8.728;2024-02-15T11:53:04;100753.25;;;17.45;52.83
85782;BME280;76219;50.128;8.728;2024-02-15T11:55:40;100749.03;;;17.42;52.11
85782;BME280;76219;50.128;8.728;2024-02-15T11:58:11;100753.38;;;17.92;51.70
85782;BME280;76219;50.128;8.728;2024-02-15T12:00:51;100744.50;;;17.43;52.78
85782;BME280;76219;50.128;8.728;2024-02-15T12:03:37;100744.78;;;16.40;55.49
85782;BME280;76219;50.128;8.728;2024-02-15T12:06:33;100725.09;;;16.91;54.67
85782;BME280;76219;50.128;8.728;2024-02-15T12:09:20;100727.94;;;17.47;52.22
85782;BME280;76219;50.128;8.728;2024-02-15T12:12:06;100722.03;;;19.47;47.44
85782;BME280;76219;50.128;8.728;2024-02-15T12:14:58;100719.63;;;19.09;47.52
85782;BME280;76219;50.128;8.728;2024-02-15T12:17:46;100726.00;;;18.16;49.54
85782;BME280;76219;50.128;8.728;2024-02-15T12:20:32;100717.47;;;19.30;47.00
85782;BME280;76219;50.128;8.728;2024-02-15T12:23:03;100715.53;;;19.05;47.10
85782;BME280;76219;50.128;8.728;2024-02-15T12:25:36;100717.97;;;20.39;43.88
85782;BME280;76219;50.128;8.728;2024-02-15T12:28:14;100704.28;;;20.40;43.58
85782;BME280;76219;50.128;8.728;2024-02-15T12:30:42;100714.16;;;19.54;44.98
85782;BME280;76219;50.128;8.728;2024-02-15T12:33:14;100703.63;;;20.81;42.20
85782;BME280;76219;50.128;8.728;2024-02-15T12:35:47;100703.00;;;20.19;43.39
85782;BME280;76219;50.128;8.728;2024-02-15T12:38:17;100707.50;;;20.10;44.14
85782;BME280;76219;50.128;8.728;2024-02-15T12:40:45;100697.13;;;21.08;41.28
85782;BME280;76219;50.128;8.728;2024-02-15T12:43:16;100704.56;;;18.71;46.85
85782;BME280;76219;50.128;8.728;2024-02-15T12:45:45;100699.25;;;17.58;48.62
85782;BME280;76219;50.128;8.728;2024-02-15T12:48:15;100700.94;;;17.10;50.20
85782;BME280;76219;50.128;8.728;2024-02-15T12:50:45;100695.59;;;18.52;47.09
85782;BME280;76219;50.128;8.728;2024-02-15T12:53:21;100696.88;;;18.21;47.31
85782;BME280;76219;50.128;8.728;2024-02-15T12:55:54;100695.00;;;17.84;47.89
85782;BME280;76219;50.128;8.728;2024-02-15T12:58:25;100693.66;;;18.07;47.06
85782;BME280;76219;50.128;8.728;2024-02-15T13:00:54;100691.91;;;17.69;48.96
85782;BME280;76219;50.128;8.728;2024-02-15T13:03:27;100690.34;;;17.09;49.67
85782;BME280;76219;50.128;8.728;2024-02-15T13:05:55;100688.00;;;18.01;48.02
85782;BME280;76219;50.128;8.728;2024-02-15T13:08:25;100674.50;;;18.75;45.64
85782;BME280;76219;50.128;8.728;2024-02-15T13:10:53;100683.41;;;18.21;46.89
85782;BME280;76219;50.128;8.728;2024-02-15T13:13:23;100674.00;;;18.07;47.70
85782;BME280;76219;50.128;8.728;2024-02-15T13:15:51;100674.00;;;18.34;46.96
85782;BME280;76219;50.128;8.728;2024-02-15T13:18:21;100667.78;;;16.52;51.96
85782;BME280;76219;50.128;8.728;2024-02-15T13:20:50;100675.25;;;17.27;49.36
85782;BME280;76219;50.128;8.728;2024-02-15T13:23:20;100674.94;;;17.69;47.97
85782;BME280;76219;50.128;8.728;2024-02-15T13:25:53;100675.78;;;17.60;48.09
85782;BME280;76219;50.128;8.728;2024-02-15T13:28:24;100669.59;;;17.30;50.23
85782;BME280;76219;50.128;8.728;2024-02-15T13:30:52;100667.72;;;17.69;48.44
85782;BME280;76219;50.128;8.728;2024-02-15T13:33:23;100664.31;;;17.58;48.55
85782;BME280;76219;50.128;8.728;2024-02-15T13:36:01;100662.66;;;17.37;49.69
85782;BME280;76219;50.128;8.728;2024-02-15T13:38:38;100661.06;;;16.27;52.05
85782;BME280;76219;50.128;8.728;2024-02-15T13:41:18;100653.03;;;16.27;53.19